createdAt,value
2019-01-31T00:00:00.323Z,12.97
2019-01-31T00:03:07.772Z,12.97
2019-01-31T00:05:47.406Z,12.91
2019-01-31T00:08:45.938Z,12.93
2019-01-31T00:11:47.315Z,12.94
2019-01-31T00:14:54.809Z,12.93
2019-01-31T00:17:49.215Z,12.94
2019-01-31T00:20:55.461Z,12.95
2019-01-31T00:24:21.877Z,12.94
2019-01-31T00:27:31.209Z,12.94
2019-01-31T00:30:44.824Z,12.95
2019-01-31T00:33:53.808Z,12.89
2019-01-31T00:36:51.773Z,12.89
2019-01-31T00:40:13.099Z,12.88
2019-01-31T00:43:13.058Z,12.89
2019-01-31T00:46:03.850Z,12.91
2019-01-31T00:49:15.502Z,12.89
2019-01-31T00:52:26.703Z,12.87
2019-01-31T00:55:26.332Z,12.86
2019-01-31T00:58:27.092Z,12.74
2019-01-31T01:01:44.395Z,12.83
2019-01-31T01:04:36.048Z,12.74
2019-01-31T01:07:40.973Z,12.77
2019-01-31T01:10:50.888Z,12.75
2019-01-31T01:14:13.889Z,12.77
2019-01-31T01:17:27.094Z,12.58
2019-01-31T01:20:27.385Z,12.78
2019-01-31T01:23:17.968Z,12.70
2019-01-31T01:26:28.655Z,12.72
2019-01-31T01:29:37.249Z,12.70
2019-01-31T01:32:37.410Z,12.67
2019-01-31T01:35:43.280Z,12.64
2019-01-31T01:39:02.255Z,12.67
2019-01-31T01:42:28.228Z,12.66
2019-01-31T01:45:42.624Z,12.70
2019-01-31T01:52:16.302Z,12.74
2019-01-31T01:55:28.968Z,12.74
2019-01-31T01:58:40.447Z,12.88
2019-01-31T02:01:50.112Z,12.88
2019-01-31T02:04:56.045Z,13.00
2019-01-31T02:07:57.586Z,12.98
2019-01-31T02:14:57.876Z,13.09
2019-01-31T02:17:44.821Z,13.02
2019-01-31T02:20:54.907Z,13.03
2019-01-31T02:24:02.060Z,13.02
2019-01-31T02:27:26.586Z,12.92
2019-01-31T02:30:36.396Z,12.95
2019-01-31T02:34:01.344Z,13.00
2019-01-31T02:37:11.598Z,13.04
2019-01-31T02:40:16.260Z,12.97
2019-01-31T02:43:17.046Z,13.04
2019-01-31T02:46:35.461Z,12.92
2019-01-31T02:49:32.507Z,12.93
2019-01-31T02:52:34.587Z,12.93
2019-01-31T02:55:47.418Z,12.90
2019-01-31T02:58:41.167Z,12.80
2019-01-31T03:01:33.347Z,12.87
2019-01-31T03:04:39.497Z,12.84
2019-01-31T03:08:01.468Z,12.80
2019-01-31T03:10:54.889Z,12.78
2019-01-31T03:14:10.189Z,12.72
2019-01-31T03:17:21.743Z,12.75
2019-01-31T03:20:24.545Z,12.71
2019-01-31T03:23:16.474Z,12.75
2019-01-31T03:26:27.965Z,12.69
2019-01-31T03:29:27.305Z,12.73
2019-01-31T03:32:22.631Z,12.74
2019-01-31T03:35:19.858Z,12.70
2019-01-31T03:38:32.375Z,12.67
2019-01-31T03:41:34.313Z,12.70
2019-01-31T03:44:29.140Z,12.78
2019-01-31T03:47:24.758Z,12.83
2019-01-31T03:50:08.974Z,12.85
2019-01-31T03:53:24.439Z,12.83
2019-01-31T03:56:37.903Z,12.82
2019-01-31T03:59:39.460Z,12.80
2019-01-31T04:02:55.371Z,12.79
2019-01-31T04:06:07.535Z,12.82
2019-01-31T04:08:39.515Z,12.87
2019-01-31T04:11:11.603Z,12.84
2019-01-31T04:13:43.613Z,12.88
2019-01-31T04:16:15.696Z,12.91
2019-01-31T04:18:47.798Z,12.91
2019-01-31T04:21:20.232Z,12.89
2019-01-31T04:23:52.261Z,12.93
2019-01-31T04:26:24.836Z,12.90
2019-01-31T04:28:56.852Z,12.89
2019-01-31T04:31:29.024Z,12.90
2019-01-31T04:34:01.346Z,12.90
2019-01-31T04:36:34.424Z,12.84
2019-01-31T04:39:09.653Z,12.91
2019-01-31T04:41:42.748Z,12.92
2019-01-31T04:44:14.723Z,12.97
2019-01-31T04:46:46.757Z,12.90
2019-01-31T04:49:18.860Z,12.93
2019-01-31T04:51:51.369Z,12.93
2019-01-31T04:54:23.534Z,12.93
2019-01-31T04:56:56.605Z,12.98
2019-01-31T04:59:28.542Z,12.99
2019-01-31T05:02:02.536Z,13.04
2019-01-31T05:04:34.517Z,13.00
2019-01-31T05:07:06.557Z,13.01
2019-01-31T05:09:38.564Z,13.01
2019-01-31T05:12:10.519Z,13.05
2019-01-31T05:14:42.922Z,13.00
2019-01-31T05:17:16.840Z,13.12
2019-01-31T05:19:48.874Z,13.11
2019-01-31T05:22:20.795Z,13.07
2019-01-31T05:24:57.198Z,13.02
2019-01-31T05:27:29.131Z,13.03
2019-01-31T05:30:02.723Z,13.04
2019-01-31T05:32:37.474Z,13.01
2019-01-31T05:35:10.297Z,12.96
2019-01-31T05:37:42.316Z,12.96
2019-01-31T05:40:15.884Z,13.03
2019-01-31T05:42:47.831Z,12.99
2019-01-31T05:45:19.815Z,13.09
2019-01-31T05:47:54.796Z,13.05
2019-01-31T05:50:26.807Z,13.06
2019-01-31T05:52:58.729Z,13.05
2019-01-31T05:55:30.750Z,13.06
2019-01-31T05:58:02.771Z,13.04
2019-01-31T06:00:37.969Z,13.05
2019-01-31T06:03:10.402Z,13.01
2019-01-31T06:05:42.682Z,13.05
2019-01-31T06:08:14.997Z,12.99
2019-01-31T06:10:46.910Z,13.00
2019-01-31T06:13:18.913Z,12.96
2019-01-31T06:15:50.894Z,13.05
2019-01-31T06:18:22.893Z,13.05
2019-01-31T06:20:54.881Z,13.10
2019-01-31T06:23:26.875Z,13.12
2019-01-31T06:26:00.143Z,13.11
2019-01-31T06:28:32.149Z,13.14
2019-01-31T06:31:04.251Z,13.12
2019-01-31T06:33:36.236Z,13.08
2019-01-31T06:36:08.184Z,13.09
2019-01-31T06:38:44.087Z,13.10
2019-01-31T06:41:18.661Z,13.01
2019-01-31T06:43:49.754Z,13.17
2019-01-31T06:46:21.700Z,13.11
2019-01-31T06:48:53.675Z,13.13
2019-01-31T06:51:25.608Z,13.14
2019-01-31T06:53:57.945Z,13.15
2019-01-31T06:56:29.933Z,13.12
2019-01-31T06:59:01.946Z,13.06
2019-01-31T07:01:34.009Z,13.09
2019-01-31T07:04:07.321Z,13.04
2019-01-31T07:06:39.257Z,13.02
2019-01-31T07:09:13.126Z,13.02
2019-01-31T07:11:45.088Z,13.03
2019-01-31T07:14:17.486Z,13.08
2019-01-31T07:16:49.512Z,13.06
2019-01-31T07:19:21.511Z,13.09
2019-01-31T07:21:53.499Z,13.01
2019-01-31T07:24:25.436Z,13.03
2019-01-31T07:26:57.533Z,13.04
2019-01-31T07:29:29.534Z,13.08
2019-01-31T07:32:03.614Z,13.09
2019-01-31T07:34:37.556Z,13.13
2019-01-31T07:37:09.514Z,13.15
2019-01-31T07:39:41.546Z,13.14
2019-01-31T07:42:13.508Z,13.17
2019-01-31T07:44:45.500Z,13.17
2019-01-31T07:47:17.600Z,13.14
2019-01-31T07:49:49.544Z,13.14
2019-01-31T07:52:28.192Z,13.12
2019-01-31T07:55:02.026Z,13.06
2019-01-31T07:57:33.821Z,13.09
2019-01-31T08:00:07.357Z,13.08
2019-01-31T08:02:39.372Z,13.15
2019-01-31T08:05:16.873Z,13.10
2019-01-31T08:07:50.762Z,13.09
2019-01-31T08:10:29.222Z,13.12
2019-01-31T08:13:01.222Z,13.15
2019-01-31T08:15:34.871Z,13.23
2019-01-31T08:18:07.296Z,13.17
2019-01-31T08:20:47.066Z,13.13
2019-01-31T08:23:19.233Z,13.19
2019-01-31T08:25:57.224Z,13.19
2019-01-31T08:28:29.434Z,13.14
2019-01-31T08:31:01.657Z,13.24
2019-01-31T08:33:35.846Z,13.25
2019-01-31T08:36:08.155Z,13.26
2019-01-31T08:38:40.156Z,13.22
2019-01-31T08:41:12.219Z,13.29
2019-01-31T08:43:47.192Z,13.30
2019-01-31T08:46:19.144Z,13.26
2019-01-31T08:48:51.135Z,13.30
2019-01-31T08:51:23.168Z,13.33
2019-01-31T08:53:55.280Z,13.28
2019-01-31T08:56:27.349Z,13.26
2019-01-31T08:58:59.351Z,13.27
2019-01-31T09:01:31.673Z,13.28
2019-01-31T09:04:03.824Z,13.31
2019-01-31T09:06:39.010Z,13.32
2019-01-31T09:09:14.229Z,13.33
2019-01-31T09:11:46.184Z,13.28
2019-01-31T09:14:18.367Z,13.36
2019-01-31T09:16:51.965Z,13.37
2019-01-31T09:19:23.997Z,13.35
2019-01-31T09:22:05.126Z,13.35
2019-01-31T09:25:21.853Z,13.38
2019-01-31T09:28:31.424Z,13.38
2019-01-31T09:31:42.987Z,13.47
2019-01-31T09:35:00.472Z,13.43
2019-01-31T09:38:28.448Z,13.53
2019-01-31T09:41:32.177Z,13.51
2019-01-31T09:44:37.396Z,13.50
2019-01-31T09:47:23.041Z,13.42
2019-01-31T09:50:18.849Z,13.40
2019-01-31T09:53:46.328Z,13.40
2019-01-31T09:57:11.572Z,13.39
2019-01-31T10:00:28.799Z,13.41
2019-01-31T10:03:42.232Z,13.41
2019-01-31T10:06:59.850Z,13.48
2019-01-31T10:09:55.014Z,13.56
2019-01-31T10:13:19.138Z,13.56
2019-01-31T10:16:21.574Z,13.54
2019-01-31T10:19:40.358Z,13.54
2019-01-31T10:22:49.543Z,13.63
2019-01-31T10:25:56.142Z,13.55
2019-01-31T10:29:23.916Z,13.60
2019-01-31T10:32:32.853Z,13.65
2019-01-31T10:35:40.463Z,13.68
2019-01-31T10:38:43.633Z,13.78
2019-01-31T10:41:39.990Z,13.82
2019-01-31T10:44:33.182Z,13.84
2019-01-31T10:47:36.089Z,13.93
2019-01-31T10:50:48.933Z,13.95
2019-01-31T10:53:57.715Z,13.98
2019-01-31T10:57:17.703Z,14.01
2019-01-31T11:00:23.467Z,14.01
2019-01-31T11:03:31.351Z,13.91
2019-01-31T11:06:46.946Z,13.89
2019-01-31T11:09:44.338Z,13.85
2019-01-31T11:13:00.942Z,13.86
2019-01-31T11:16:22.608Z,13.76
2019-01-31T11:19:43.554Z,13.87
2019-01-31T11:22:57.225Z,13.81
2019-01-31T11:26:06.824Z,13.70
2019-01-31T11:29:28.469Z,13.70
2019-01-31T11:32:33.581Z,13.62
2019-01-31T11:35:49.578Z,13.75
2019-01-31T11:38:51.978Z,13.83
2019-01-31T11:41:48.694Z,13.78
2019-01-31T11:44:57.315Z,13.87
2019-01-31T11:47:53.370Z,13.93
2019-01-31T11:51:07.576Z,13.99
2019-01-31T11:54:12.224Z,13.98
2019-01-31T11:57:33.419Z,14.09
2019-01-31T12:00:14.784Z,13.97
2019-01-31T12:02:54.758Z,13.96
2019-01-31T12:05:20.911Z,13.94
2019-01-31T12:07:53.002Z,14.00
2019-01-31T12:10:25.185Z,13.94
2019-01-31T12:12:57.548Z,13.96
2019-01-31T12:15:30.026Z,14.00
2019-01-31T12:18:02.146Z,14.03
2019-01-31T12:20:34.204Z,14.00
2019-01-31T12:23:06.517Z,13.93
2019-01-31T12:25:41.591Z,13.95
2019-01-31T12:28:13.583Z,13.86
2019-01-31T12:30:46.074Z,13.97
2019-01-31T12:33:18.631Z,14.03
2019-01-31T12:35:50.911Z,13.96
2019-01-31T12:38:22.986Z,13.87
2019-01-31T12:40:56.053Z,13.86
2019-01-31T12:43:34.794Z,13.95
2019-01-31T12:46:02.241Z,13.97
2019-01-31T12:48:34.608Z,13.96
2019-01-31T12:51:06.794Z,13.88
2019-01-31T12:53:38.935Z,13.84
2019-01-31T12:56:12.369Z,13.81
2019-01-31T12:58:44.488Z,13.81
2019-01-31T13:01:16.880Z,13.82
2019-01-31T13:03:49.627Z,13.77
2019-01-31T13:06:21.603Z,13.65
2019-01-31T13:08:55.012Z,13.63
2019-01-31T13:11:27.153Z,13.57
2019-01-31T13:14:00.683Z,13.54
2019-01-31T13:16:32.843Z,13.52
2019-01-31T13:19:05.427Z,13.54
2019-01-31T13:21:37.945Z,13.56
2019-01-31T13:24:10.063Z,13.59
2019-01-31T13:26:42.624Z,13.58
2019-01-31T13:29:14.726Z,13.55
2019-01-31T13:31:46.777Z,13.47
2019-01-31T13:34:19.633Z,13.41
2019-01-31T13:36:51.714Z,13.45
2019-01-31T13:39:23.972Z,13.33
2019-01-31T13:41:55.958Z,13.38
2019-01-31T13:44:28.061Z,13.32
2019-01-31T13:47:00.029Z,13.33
2019-01-31T13:49:32.738Z,13.36
2019-01-31T13:52:06.855Z,13.32
2019-01-31T13:54:38.914Z,13.30
2019-01-31T13:57:11.528Z,13.33
2019-01-31T13:59:43.704Z,13.37
2019-01-31T14:02:16.780Z,13.38
2019-01-31T14:04:48.826Z,13.40
2019-01-31T14:07:20.936Z,13.40
2019-01-31T14:09:52.927Z,13.45
2019-01-31T14:12:24.958Z,13.45
2019-01-31T14:14:57.732Z,13.38
2019-01-31T14:17:29.800Z,13.39
2019-01-31T14:20:01.818Z,13.31
2019-01-31T14:22:42.772Z,13.32
2019-01-31T14:25:08.019Z,13.43
2019-01-31T14:27:42.781Z,13.36
2019-01-31T14:30:21.539Z,13.35
2019-01-31T14:32:53.599Z,13.41
2019-01-31T14:35:25.770Z,13.44
2019-01-31T14:37:58.164Z,13.46
2019-01-31T14:40:31.562Z,13.45
2019-01-31T14:43:03.619Z,13.43
2019-01-31T14:45:35.650Z,13.42
2019-01-31T14:48:08.109Z,13.38
2019-01-31T14:50:42.207Z,13.35
2019-01-31T14:53:14.297Z,13.40
2019-01-31T14:55:46.273Z,13.41
2019-01-31T14:58:20.069Z,13.45
2019-01-31T15:00:52.276Z,13.42
2019-01-31T15:03:24.241Z,13.38
2019-01-31T15:05:56.300Z,13.41
2019-01-31T15:08:28.435Z,13.46
2019-01-31T15:11:00.415Z,13.48
2019-01-31T15:13:34.086Z,13.52
2019-01-31T15:16:06.560Z,13.51
2019-01-31T15:18:39.611Z,13.56
2019-01-31T15:21:13.214Z,13.55
2019-01-31T15:23:45.321Z,13.57
2019-01-31T15:26:17.343Z,13.59
2019-01-31T15:28:49.590Z,13.60
2019-01-31T15:31:21.681Z,13.62
2019-01-31T15:33:53.622Z,13.58
2019-01-31T15:36:25.632Z,13.56
2019-01-31T15:38:57.802Z,13.53
2019-01-31T15:41:29.823Z,13.53
2019-01-31T15:44:01.800Z,13.58
2019-01-31T15:46:33.897Z,13.57
2019-01-31T15:49:06.082Z,13.56
2019-01-31T15:51:38.051Z,13.57
2019-01-31T15:54:11.141Z,13.58
2019-01-31T15:56:44.325Z,13.61
2019-01-31T15:59:16.425Z,13.65
2019-01-31T16:01:48.760Z,13.65
2019-01-31T16:04:23.867Z,13.64
2019-01-31T16:06:55.991Z,13.62
2019-01-31T16:09:29.841Z,13.58
2019-01-31T16:12:01.878Z,13.60
2019-01-31T16:14:34.032Z,13.56
2019-01-31T16:17:06.373Z,13.59
2019-01-31T16:19:38.430Z,13.63
2019-01-31T16:22:10.807Z,13.65
2019-01-31T16:24:42.753Z,13.66
2019-01-31T16:27:14.779Z,13.59
2019-01-31T16:29:46.718Z,13.55
2019-01-31T16:32:18.953Z,13.54
2019-01-31T16:34:50.920Z,13.56
2019-01-31T16:37:23.036Z,13.60
2019-01-31T16:39:55.142Z,13.60
2019-01-31T16:42:27.528Z,13.52
2019-01-31T16:45:06.967Z,13.55
2019-01-31T16:47:33.611Z,13.60
2019-01-31T16:50:07.579Z,13.61
2019-01-31T16:52:40.003Z,13.61
2019-01-31T16:55:18.365Z,13.63
2019-01-31T16:57:50.807Z,13.64
2019-01-31T17:00:28.019Z,13.69
2019-01-31T17:03:00.284Z,13.70
2019-01-31T17:05:33.252Z,13.67
2019-01-31T17:08:06.520Z,13.71
2019-01-31T17:10:38.471Z,13.70
2019-01-31T17:13:10.682Z,13.69
2019-01-31T17:15:42.787Z,13.71
2019-01-31T17:18:14.781Z,13.75
2019-01-31T17:20:47.370Z,13.69
2019-01-31T17:23:21.266Z,13.68
2019-01-31T17:25:56.168Z,13.67
2019-01-31T17:28:28.212Z,13.67
2019-01-31T17:31:00.195Z,13.65
2019-01-31T17:33:32.187Z,13.65
2019-01-31T17:36:04.365Z,13.68
2019-01-31T17:38:36.288Z,13.69
2019-01-31T17:41:10.353Z,13.71
2019-01-31T17:43:42.349Z,13.68
2019-01-31T17:46:14.511Z,13.64
2019-01-31T17:48:46.574Z,13.70
2019-01-31T17:51:18.830Z,13.73
2019-01-31T17:53:50.988Z,13.68
2019-01-31T17:56:22.913Z,13.68
2019-01-31T17:58:55.015Z,13.65
2019-01-31T18:01:27.157Z,13.63
2019-01-31T18:03:59.085Z,13.53
2019-01-31T18:06:31.111Z,13.52
2019-01-31T18:09:03.250Z,13.39
2019-01-31T18:11:35.516Z,13.28
2019-01-31T18:14:08.019Z,13.19
2019-01-31T18:16:40.369Z,13.05
2019-01-31T18:19:12.510Z,12.95
2019-01-31T18:21:44.485Z,12.90
2019-01-31T18:24:16.430Z,12.78
2019-01-31T18:26:50.059Z,12.72
2019-01-31T18:29:22.249Z,12.67
2019-01-31T18:31:54.180Z,12.61
2019-01-31T18:34:27.693Z,12.51
2019-01-31T18:36:59.737Z,12.44
2019-01-31T18:39:31.731Z,12.37
2019-01-31T18:42:04.075Z,12.25
2019-01-31T18:44:36.516Z,11.99
2019-01-31T18:47:08.483Z,11.82
2019-01-31T18:49:41.994Z,11.69
2019-01-31T18:52:14.122Z,11.61
2019-01-31T18:54:46.075Z,11.54
2019-01-31T18:57:18.062Z,11.47
2019-01-31T18:59:50.129Z,11.46
2019-01-31T19:02:22.196Z,11.39
2019-01-31T19:04:54.305Z,11.41
2019-01-31T19:07:26.445Z,11.40
2019-01-31T19:09:58.387Z,11.43
2019-01-31T19:12:30.525Z,11.41
2019-01-31T19:15:02.958Z,11.37
2019-01-31T19:17:34.944Z,11.41
2019-01-31T19:20:11.606Z,11.47
2019-01-31T19:22:43.604Z,11.52
2019-01-31T19:25:18.953Z,11.57
2019-01-31T19:27:51.005Z,11.61
2019-01-31T19:30:28.180Z,11.56
2019-01-31T19:33:00.283Z,11.62
2019-01-31T19:35:33.846Z,11.60
2019-01-31T19:38:07.397Z,11.66
2019-01-31T19:40:44.510Z,11.65
2019-01-31T19:43:16.861Z,11.57
2019-01-31T19:45:51.454Z,11.62
2019-01-31T19:48:23.834Z,11.53
2019-01-31T19:50:55.897Z,11.57
2019-01-31T19:53:29.988Z,11.63
2019-01-31T19:56:02.053Z,11.58
2019-01-31T19:58:34.220Z,11.53
2019-01-31T20:01:06.864Z,11.50
2019-01-31T20:03:38.989Z,11.50
2019-01-31T20:06:12.355Z,11.53
2019-01-31T20:08:44.423Z,11.46
2019-01-31T20:11:19.504Z,11.46
2019-01-31T20:13:50.423Z,11.44
2019-01-31T20:16:29.135Z,11.08
2019-01-31T20:18:59.370Z,11.35
2019-01-31T20:21:31.495Z,11.37
2019-01-31T20:24:03.511Z,11.35
2019-01-31T20:26:35.608Z,11.37
2019-01-31T20:29:07.758Z,11.33
2019-01-31T20:31:39.916Z,11.32
2019-01-31T20:34:12.011Z,11.35
2019-01-31T20:36:44.084Z,11.28
2019-01-31T20:39:16.271Z,11.27
2019-01-31T20:41:54.331Z,11.37
2019-01-31T20:44:25.204Z,11.40
2019-01-31T20:46:57.249Z,11.42
2019-01-31T20:49:29.222Z,11.46
2019-01-31T20:52:01.389Z,11.41
2019-01-31T20:54:36.486Z,11.32
2019-01-31T20:57:08.898Z,11.28
2019-01-31T20:59:40.947Z,11.30
2019-01-31T21:02:13.044Z,11.26
2019-01-31T21:04:45.443Z,11.35
2019-01-31T21:07:17.620Z,11.38
2019-01-31T21:09:50.030Z,11.28
2019-01-31T21:12:22.140Z,11.22
2019-01-31T21:14:56.368Z,11.21
2019-01-31T21:17:28.720Z,11.29
2019-01-31T21:20:00.734Z,11.25
2019-01-31T21:22:32.856Z,11.23
2019-01-31T21:25:06.334Z,11.22
2019-01-31T21:27:38.511Z,11.24
2019-01-31T21:30:15.298Z,11.30
2019-01-31T21:32:47.467Z,11.29
2019-01-31T21:35:20.444Z,11.25
2019-01-31T21:37:52.659Z,11.29
2019-01-31T21:40:25.150Z,11.21
2019-01-31T21:42:57.355Z,11.27
2019-01-31T21:45:29.731Z,11.21
2019-01-31T21:48:02.263Z,11.29
2019-01-31T21:50:34.481Z,11.44
2019-01-31T21:53:06.983Z,11.43
2019-01-31T21:55:39.237Z,11.45
2019-01-31T21:58:11.511Z,11.46
2019-01-31T22:00:43.659Z,11.49
2019-01-31T22:03:16.197Z,11.43
2019-01-31T22:05:48.398Z,11.36
2019-01-31T22:08:20.964Z,11.28
2019-01-31T22:10:53.188Z,11.29
2019-01-31T22:13:25.232Z,11.20
2019-01-31T22:15:57.646Z,11.13
2019-01-31T22:18:29.716Z,11.02
2019-01-31T22:21:05.059Z,10.99
2019-01-31T22:23:37.035Z,10.96
2019-01-31T22:26:09.037Z,10.87
2019-01-31T22:28:41.156Z,10.73
2019-01-31T22:31:13.157Z,10.67
2019-01-31T22:33:45.353Z,10.60
2019-01-31T22:36:18.646Z,10.63
2019-01-31T22:38:50.677Z,10.67
2019-01-31T22:41:23.028Z,10.71
2019-01-31T22:43:54.998Z,10.72
2019-01-31T22:46:27.111Z,10.71
2019-01-31T22:48:59.288Z,10.77
2019-01-31T22:51:31.307Z,10.59
2019-01-31T22:54:05.845Z,10.59
2019-01-31T22:56:37.937Z,10.56
2019-01-31T22:59:09.918Z,10.44
2019-01-31T23:01:52.821Z,10.45
2019-01-31T23:04:24.964Z,10.42
2019-01-31T23:06:57.047Z,10.42
2019-01-31T23:09:29.041Z,10.34
2019-01-31T23:12:01.139Z,10.25
2019-01-31T23:14:33.507Z,10.18
2019-01-31T23:17:06.026Z,10.08
2019-01-31T23:19:40.494Z,9.97
2019-01-31T23:22:12.594Z,9.89
2019-01-31T23:24:47.684Z,9.81
2019-01-31T23:27:19.647Z,9.81
2019-01-31T23:29:51.587Z,9.78
2019-01-31T23:32:23.768Z,9.75
2019-01-31T23:34:55.701Z,9.81
2019-01-31T23:37:27.797Z,9.72
2019-01-31T23:39:59.833Z,9.72
2019-01-31T23:42:31.788Z,9.69
2019-01-31T23:45:04.710Z,9.69
2019-01-31T23:47:48.069Z,9.70
2019-01-31T23:50:11.283Z,9.70
2019-01-31T23:52:43.478Z,9.75
2019-01-31T23:55:15.684Z,9.79
2019-01-31T23:57:47.607Z,9.78
